createdAt,value
2022-12-24T00:00:03.733Z,101168.00
2022-12-24T00:02:36.862Z,101172.00
2022-12-24T00:05:10.284Z,101162.00
2022-12-24T00:07:43.123Z,101161.00
2022-12-24T00:10:16.211Z,101161.00
2022-12-24T00:12:49.076Z,101167.00
2022-12-24T00:15:22.008Z,101164.00
2022-12-24T00:17:54.813Z,101172.00
2022-12-24T00:20:27.745Z,101166.00
2022-12-24T00:23:00.895Z,101163.00
2022-12-24T00:25:34.007Z,101164.00
2022-12-24T00:28:06.957Z,101155.00
2022-12-24T00:30:41.104Z,101165.00
2022-12-24T00:33:16.202Z,101158.00
2022-12-24T00:35:48.321Z,101154.00
2022-12-24T00:38:21.235Z,101158.00
2022-12-24T00:40:54.147Z,101159.00
2022-12-24T00:43:27.114Z,101165.00
2022-12-24T00:46:00.578Z,101159.00
2022-12-24T00:48:33.439Z,101166.00
2022-12-24T00:51:08.956Z,101172.00
2022-12-24T00:53:40.621Z,101173.00
2022-12-24T00:56:13.763Z,101168.00
2022-12-24T00:58:47.036Z,101156.00
2022-12-24T01:01:20.736Z,101163.00
2022-12-24T01:03:54.045Z,101158.00
2022-12-24T01:06:31.547Z,101148.00
2022-12-24T01:09:04.498Z,101155.00
2022-12-24T01:11:37.716Z,101154.00
2022-12-24T01:14:10.592Z,101149.00
2022-12-24T01:16:43.357Z,101155.00
2022-12-24T01:19:16.244Z,101150.00
2022-12-24T01:21:49.301Z,101144.00
2022-12-24T01:24:42.106Z,101133.00
2022-12-24T01:27:18.065Z,101136.00
2022-12-24T01:29:51.108Z,101137.00
2022-12-24T01:32:23.977Z,101143.00
2022-12-24T01:34:56.859Z,101147.00
2022-12-24T01:37:29.519Z,101135.00
2022-12-24T01:40:19.760Z,101131.00
2022-12-24T01:43:03.617Z,101126.00
2022-12-24T01:45:41.491Z,101125.00
2022-12-24T01:48:24.921Z,101117.00
2022-12-24T01:51:11.548Z,101116.00
2022-12-24T01:53:46.157Z,101109.00
2022-12-24T01:56:19.770Z,101105.00
2022-12-24T01:58:54.486Z,101101.00
2022-12-24T02:01:27.706Z,101095.00
2022-12-24T02:04:00.615Z,101090.00
2022-12-24T02:06:36.227Z,101104.00
2022-12-24T02:09:09.106Z,101085.00
2022-12-24T02:11:43.207Z,101082.00
2022-12-24T02:14:17.105Z,101095.00
2022-12-24T02:17:24.996Z,101102.00
2022-12-24T02:20:14.762Z,101088.00
2022-12-24T02:23:06.266Z,101090.00
2022-12-24T02:25:47.530Z,101090.00
2022-12-24T02:28:47.578Z,101079.00
2022-12-24T02:31:40.712Z,101086.00
2022-12-24T02:34:20.185Z,101084.00
2022-12-24T02:36:55.077Z,101090.00
2022-12-24T02:39:45.946Z,101093.00
2022-12-24T02:42:21.263Z,101100.00
2022-12-24T02:44:59.691Z,101092.00
2022-12-24T02:47:34.199Z,101102.00
2022-12-24T02:50:09.437Z,101102.00
2022-12-24T02:52:44.437Z,101101.00
2022-12-24T02:55:25.268Z,101118.00
2022-12-24T02:58:16.598Z,101114.00
2022-12-24T03:01:20.250Z,101114.00
2022-12-24T03:04:04.699Z,101113.00
2022-12-24T03:06:52.104Z,101123.00
2022-12-24T03:09:37.047Z,101119.00
2022-12-24T03:12:11.759Z,101128.00
2022-12-24T03:14:45.839Z,101122.00
2022-12-24T03:17:19.260Z,101125.00
2022-12-24T03:19:52.243Z,101117.00
2022-12-24T03:22:25.910Z,101112.00
2022-12-24T03:24:59.386Z,101105.00
2022-12-24T03:27:33.566Z,101102.00
2022-12-24T03:30:08.138Z,101089.00
2022-12-24T03:32:41.732Z,101093.00
2022-12-24T03:35:15.101Z,101083.00
2022-12-24T03:37:48.225Z,101074.00
2022-12-24T03:40:20.970Z,101068.00
2022-12-24T03:42:53.865Z,101059.00
2022-12-24T03:45:26.831Z,101065.00
2022-12-24T03:47:59.655Z,101066.00
2022-12-24T03:50:32.381Z,101064.00
2022-12-24T03:53:05.318Z,101064.00
2022-12-24T03:55:38.277Z,101066.00
2022-12-24T03:58:11.240Z,101073.00
2022-12-24T04:00:44.845Z,101067.00
2022-12-24T04:03:18.861Z,101072.00
2022-12-24T04:05:51.788Z,101072.00
2022-12-24T04:08:24.868Z,101064.00
2022-12-24T04:11:07.762Z,101072.00
2022-12-24T04:13:42.188Z,101064.00
2022-12-24T04:16:25.100Z,101065.00
2022-12-24T04:18:58.437Z,101074.00
2022-12-24T04:21:31.477Z,101076.00
2022-12-24T04:24:06.519Z,101073.00
2022-12-24T04:26:59.646Z,101072.00
2022-12-24T04:29:34.860Z,101070.00
2022-12-24T04:32:07.994Z,101075.00
2022-12-24T04:34:41.198Z,101065.00
2022-12-24T04:37:17.531Z,101060.00
2022-12-24T04:39:50.583Z,101064.00
2022-12-24T04:42:23.708Z,101054.00
2022-12-24T04:44:56.831Z,101050.00
2022-12-24T04:47:29.761Z,101057.00
2022-12-24T04:50:03.427Z,101059.00
2022-12-24T04:52:37.192Z,101053.00
2022-12-24T04:55:10.402Z,101054.00
2022-12-24T04:57:45.339Z,101050.00
2022-12-24T05:00:18.063Z,101051.00
2022-12-24T05:02:51.164Z,101053.00
2022-12-24T05:05:24.056Z,101049.00
2022-12-24T05:07:59.182Z,101053.00
2022-12-24T05:10:32.084Z,101049.00
2022-12-24T05:13:04.977Z,101048.00
2022-12-24T05:15:37.882Z,101048.00
2022-12-24T05:18:10.708Z,101017.00
2022-12-24T05:20:44.817Z,101053.00
2022-12-24T05:23:39.527Z,101047.00
2022-12-24T05:26:26.475Z,101049.00
2022-12-24T05:29:01.205Z,101056.00
2022-12-24T05:31:36.083Z,101056.00
2022-12-24T05:34:08.965Z,101051.00
2022-12-24T05:36:42.362Z,101053.00
2022-12-24T05:39:17.049Z,101057.00
2022-12-24T05:41:50.328Z,101051.00
2022-12-24T05:44:26.797Z,101050.00
2022-12-24T05:47:01.579Z,101060.00
2022-12-24T05:49:36.353Z,101063.00
2022-12-24T05:52:18.534Z,101062.00
2022-12-24T05:54:51.003Z,101060.00
2022-12-24T05:57:23.946Z,101067.00
2022-12-24T05:59:56.708Z,101075.00
2022-12-24T06:02:29.795Z,101082.00
2022-12-24T06:05:02.738Z,101077.00
2022-12-24T06:07:39.870Z,101082.00
2022-12-24T06:10:13.249Z,101082.00
2022-12-24T06:12:46.132Z,101081.00
2022-12-24T06:15:23.890Z,101082.00
2022-12-24T06:17:53.336Z,101077.00
2022-12-24T06:20:26.110Z,101091.00
2022-12-24T06:22:59.009Z,101079.00
2022-12-24T06:25:31.908Z,101083.00
2022-12-24T06:28:05.702Z,101081.00
2022-12-24T06:30:38.997Z,101084.00
2022-12-24T06:33:11.816Z,101089.00
2022-12-24T06:35:44.748Z,101087.00
2022-12-24T06:38:17.754Z,101085.00
2022-12-24T06:40:53.631Z,101095.00
2022-12-24T06:43:26.484Z,101089.00
2022-12-24T06:45:59.567Z,101088.00
2022-12-24T06:48:32.356Z,101084.00
2022-12-24T06:51:06.727Z,101093.00
2022-12-24T06:53:39.560Z,101094.00
2022-12-24T06:56:14.355Z,101089.00
2022-12-24T06:58:47.880Z,101099.00
2022-12-24T07:01:22.113Z,101100.00
2022-12-24T07:03:55.344Z,101105.00
2022-12-24T07:06:32.587Z,101107.00
2022-12-24T07:09:05.432Z,101116.00
2022-12-24T07:11:38.455Z,101112.00
2022-12-24T07:14:11.375Z,101126.00
2022-12-24T07:16:44.452Z,101132.00
2022-12-24T07:19:17.847Z,101130.00
2022-12-24T07:21:51.765Z,101134.00
2022-12-24T07:24:24.794Z,101125.00
2022-12-24T07:26:57.631Z,101130.00
2022-12-24T07:29:31.510Z,101135.00
2022-12-24T07:32:04.734Z,101138.00
2022-12-24T07:34:41.878Z,101143.00
2022-12-24T07:37:14.842Z,101153.00
2022-12-24T07:39:47.845Z,101167.00
2022-12-24T07:42:20.775Z,101156.00
2022-12-24T07:44:53.821Z,101153.00
2022-12-24T07:47:31.352Z,101159.00
2022-12-24T07:50:09.837Z,101153.00
2022-12-24T07:52:59.300Z,101155.00
2022-12-24T07:55:32.917Z,101162.00
2022-12-24T07:58:05.871Z,101166.00
2022-12-24T08:00:38.793Z,101162.00
2022-12-24T08:03:11.753Z,101164.00
2022-12-24T08:05:44.624Z,101164.00
2022-12-24T08:08:17.579Z,101165.00
2022-12-24T08:10:50.796Z,101176.00
2022-12-24T08:13:23.660Z,101176.00
2022-12-24T08:15:56.710Z,101182.00
2022-12-24T08:18:29.838Z,101184.00
2022-12-24T08:21:07.180Z,101189.00
2022-12-24T08:23:40.899Z,101197.00
2022-12-24T08:26:15.490Z,101202.00
2022-12-24T08:28:49.157Z,101191.00
2022-12-24T08:31:22.476Z,101202.00
2022-12-24T08:33:55.455Z,101212.00
2022-12-24T08:36:28.623Z,101219.00
2022-12-24T08:39:01.509Z,101218.00
2022-12-24T08:41:35.815Z,101234.00
2022-12-24T08:44:08.613Z,101242.00
2022-12-24T08:46:41.887Z,101250.00
2022-12-24T08:49:14.921Z,101254.00
2022-12-24T08:51:47.874Z,101254.00
2022-12-24T08:54:20.971Z,101253.00
2022-12-24T08:56:54.842Z,101243.00
2022-12-24T08:59:28.063Z,101241.00
2022-12-24T09:02:01.224Z,101252.00
2022-12-24T09:04:34.143Z,101256.00
2022-12-24T09:07:06.954Z,101251.00
2022-12-24T09:09:39.726Z,101265.00
2022-12-24T09:12:13.469Z,101262.00
2022-12-24T09:14:46.419Z,101278.00
2022-12-24T09:17:19.199Z,101276.00
2022-12-24T09:19:52.366Z,101276.00
2022-12-24T09:22:26.581Z,101271.00
2022-12-24T09:25:07.028Z,101272.00
2022-12-24T09:27:42.796Z,101275.00
2022-12-24T09:30:16.618Z,101264.00
2022-12-24T09:32:49.977Z,101264.00
2022-12-24T09:35:23.159Z,101259.00
2022-12-24T09:37:57.437Z,101260.00
2022-12-24T09:40:32.422Z,101259.00
2022-12-24T09:43:06.581Z,101265.00
2022-12-24T09:45:41.230Z,101268.00
2022-12-24T09:48:18.939Z,101264.00
2022-12-24T09:51:08.277Z,101269.00
2022-12-24T09:54:06.914Z,101267.00
2022-12-24T09:56:44.745Z,101279.00
2022-12-24T09:59:28.981Z,101288.00
2022-12-24T10:02:03.182Z,101278.00
2022-12-24T10:04:36.784Z,101282.00
2022-12-24T10:07:29.396Z,101271.00
2022-12-24T10:10:23.693Z,101272.00
2022-12-24T10:13:15.211Z,101281.00
2022-12-24T10:16:01.680Z,101283.00
2022-12-24T10:18:54.772Z,101286.00
2022-12-24T10:22:03.113Z,101288.00
2022-12-24T10:24:46.363Z,101286.00
2022-12-24T10:27:19.644Z,101283.00
2022-12-24T10:30:00.703Z,101278.00
2022-12-24T10:32:38.145Z,101287.00
2022-12-24T10:35:22.327Z,101282.00
2022-12-24T10:37:55.829Z,101268.00
2022-12-24T10:40:47.439Z,101272.00
2022-12-24T10:43:25.258Z,101269.00
2022-12-24T10:46:09.089Z,101258.00
2022-12-24T10:49:00.748Z,101266.00
2022-12-24T10:51:53.582Z,101257.00
2022-12-24T10:54:28.088Z,101260.00
2022-12-24T10:57:05.640Z,101257.00
2022-12-24T10:59:43.596Z,101258.00
2022-12-24T11:02:35.179Z,101264.00
2022-12-24T11:05:14.438Z,101261.00
2022-12-24T11:07:52.569Z,101264.00
2022-12-24T11:10:28.901Z,101261.00
2022-12-24T11:13:35.791Z,101257.00
2022-12-24T11:15:38.238Z,101262.00
2022-12-24T11:18:12.923Z,101258.00
2022-12-24T11:20:47.203Z,101263.00
2022-12-24T11:23:21.017Z,101260.00
2022-12-24T11:25:55.227Z,101262.00
2022-12-24T11:28:30.083Z,101269.00
2022-12-24T11:31:08.024Z,101263.00
2022-12-24T11:33:43.504Z,101268.00
2022-12-24T11:36:18.151Z,101276.00
2022-12-24T11:38:59.055Z,101276.00
2022-12-24T11:41:33.223Z,101277.00
2022-12-24T11:44:08.347Z,101276.00
2022-12-24T11:46:47.743Z,101279.00
2022-12-24T11:49:30.258Z,101273.00
2022-12-24T11:52:16.308Z,101274.00
2022-12-24T11:55:16.312Z,101278.00
2022-12-24T11:57:48.389Z,101279.00
2022-12-24T12:00:23.541Z,101277.00
2022-12-24T12:02:58.046Z,101276.00
2022-12-24T12:05:35.799Z,101268.00
2022-12-24T12:08:14.297Z,101269.00
2022-12-24T12:10:49.330Z,101262.00
2022-12-24T12:13:31.686Z,101261.00
2022-12-24T12:16:18.535Z,101271.00
2022-12-24T12:19:14.802Z,101269.00
2022-12-24T12:21:44.244Z,101268.00
2022-12-24T12:24:32.058Z,101263.00
2022-12-24T12:27:22.178Z,101262.00
2022-12-24T12:29:56.805Z,101260.00
2022-12-24T12:32:42.685Z,101259.00
2022-12-24T12:35:20.197Z,101262.00
2022-12-24T12:38:11.424Z,101257.00
2022-12-24T12:41:01.150Z,101269.00
2022-12-24T12:43:41.275Z,101259.00
2022-12-24T12:46:25.382Z,101265.00
2022-12-24T12:49:14.596Z,101267.00
2022-12-24T12:51:55.149Z,101268.00
2022-12-24T12:54:48.018Z,101261.00
2022-12-24T12:57:22.980Z,101272.00
2022-12-24T12:59:57.478Z,101271.00
2022-12-24T13:02:47.390Z,101268.00
2022-12-24T13:05:25.766Z,101266.00
2022-12-24T13:08:06.567Z,101264.00
2022-12-24T13:10:56.400Z,101265.00
2022-12-24T13:13:46.503Z,101268.00
2022-12-24T13:16:39.657Z,101259.00
2022-12-24T13:19:43.219Z,101258.00
2022-12-24T13:22:20.734Z,101247.00
2022-12-24T13:24:55.366Z,101251.00
2022-12-24T13:27:36.078Z,101250.00
2022-12-24T13:30:31.109Z,101254.00
2022-12-24T13:33:04.216Z,101261.00
2022-12-24T13:35:40.205Z,101255.00
2022-12-24T13:38:23.615Z,101248.00
2022-12-24T13:40:56.967Z,101252.00
2022-12-24T13:43:31.239Z,101244.00
2022-12-24T13:46:05.080Z,101242.00
2022-12-24T13:48:39.114Z,101235.00
2022-12-24T13:51:25.620Z,101235.00
2022-12-24T13:54:02.532Z,101234.00
2022-12-24T13:56:41.824Z,101239.00
2022-12-24T13:59:16.706Z,101234.00
2022-12-24T14:01:50.243Z,101237.00
2022-12-24T14:04:34.134Z,101224.00
2022-12-24T14:07:08.287Z,101223.00
2022-12-24T14:09:45.847Z,101226.00
2022-12-24T14:12:35.611Z,101223.00
2022-12-24T14:15:25.606Z,101214.00
2022-12-24T14:17:58.881Z,101216.00
2022-12-24T14:20:31.854Z,101215.00
2022-12-24T14:23:05.055Z,101210.00
2022-12-24T14:25:37.885Z,101203.00
2022-12-24T14:28:12.792Z,101197.00
2022-12-24T14:30:45.619Z,101188.00
2022-12-24T14:33:37.758Z,101191.00
2022-12-24T14:36:12.721Z,101189.00
2022-12-24T14:38:50.327Z,101190.00
2022-12-24T14:41:31.429Z,101213.00
2022-12-24T14:44:32.258Z,101202.00
2022-12-24T14:47:06.410Z,101209.00
2022-12-24T14:49:44.266Z,101199.00
2022-12-24T14:53:04.599Z,101192.00
2022-12-24T14:55:36.142Z,101196.00
2022-12-24T14:58:25.913Z,101191.00
2022-12-24T15:01:01.218Z,101183.00
2022-12-24T15:03:35.966Z,101178.00
2022-12-24T15:06:10.110Z,101162.00
2022-12-24T15:08:44.739Z,101155.00
2022-12-24T15:11:19.308Z,101150.00
2022-12-24T15:13:55.878Z,101154.00
2022-12-24T15:16:37.121Z,101153.00
2022-12-24T15:19:11.945Z,101146.00
2022-12-24T15:21:45.995Z,101150.00
2022-12-24T15:24:33.926Z,101154.00
2022-12-24T15:27:09.115Z,101150.00
2022-12-24T15:29:43.916Z,101145.00
2022-12-24T15:32:18.756Z,101149.00
2022-12-24T15:34:54.037Z,101152.00
2022-12-24T15:37:31.816Z,101155.00
2022-12-24T15:40:15.314Z,101163.00
2022-12-24T15:42:48.351Z,101153.00
2022-12-24T15:45:33.610Z,101153.00
2022-12-24T15:48:14.080Z,101160.00
2022-12-24T15:50:51.618Z,101163.00
2022-12-24T15:53:32.634Z,101163.00
2022-12-24T15:56:14.439Z,101168.00
2022-12-24T15:58:48.402Z,101171.00
2022-12-24T16:01:23.730Z,101176.00
2022-12-24T16:03:59.083Z,101178.00
2022-12-24T16:06:32.121Z,101173.00
2022-12-24T16:09:05.066Z,101176.00
2022-12-24T16:11:41.397Z,101183.00
2022-12-24T16:14:22.871Z,101190.00
2022-12-24T16:16:56.516Z,101194.00
2022-12-24T16:19:37.684Z,101195.00
2022-12-24T16:22:08.106Z,101191.00
2022-12-24T16:24:41.347Z,101202.00
2022-12-24T16:27:15.846Z,101203.00
2022-12-24T16:29:49.377Z,101212.00
2022-12-24T16:32:33.586Z,101218.00
2022-12-24T16:35:08.073Z,101206.00
2022-12-24T16:37:41.462Z,101208.00
2022-12-24T16:40:23.320Z,101215.00
2022-12-24T16:43:09.907Z,101220.00
2022-12-24T16:45:43.083Z,101213.00
2022-12-24T16:48:17.606Z,101216.00
2022-12-24T16:50:53.085Z,101221.00
2022-12-24T16:53:26.991Z,101219.00
2022-12-24T16:55:59.989Z,101228.00
2022-12-24T16:58:33.120Z,101237.00
2022-12-24T17:01:13.161Z,101230.00
2022-12-24T17:03:48.375Z,101232.00
2022-12-24T17:06:20.083Z,101229.00
2022-12-24T17:08:53.197Z,101233.00
2022-12-24T17:11:27.444Z,101240.00
2022-12-24T17:14:04.370Z,101234.00
2022-12-24T17:16:35.023Z,101230.00
2022-12-24T17:19:07.979Z,101230.00
2022-12-24T17:21:41.158Z,101232.00
2022-12-24T17:24:14.512Z,101231.00
2022-12-24T17:26:47.614Z,101235.00
2022-12-24T17:29:20.375Z,101245.00
2022-12-24T17:31:53.725Z,101225.00
2022-12-24T17:34:26.607Z,101236.00
2022-12-24T17:36:59.993Z,101240.00
2022-12-24T17:39:34.880Z,101242.00
2022-12-24T17:42:07.789Z,101252.00
2022-12-24T17:44:40.564Z,101250.00
2022-12-24T17:47:13.418Z,101258.00
2022-12-24T17:49:46.130Z,101264.00
2022-12-24T17:52:18.899Z,101268.00
2022-12-24T17:54:51.714Z,101264.00
2022-12-24T17:57:24.544Z,101263.00
2022-12-24T17:59:58.778Z,101256.00
2022-12-24T18:02:32.147Z,101258.00
2022-12-24T18:05:05.089Z,101261.00
2022-12-24T18:07:38.103Z,101251.00
2022-12-24T18:10:11.905Z,101252.00
2022-12-24T18:12:44.806Z,101254.00
2022-12-24T18:15:18.934Z,101255.00
2022-12-24T18:17:56.975Z,101252.00
2022-12-24T18:20:30.120Z,101243.00
2022-12-24T18:23:03.271Z,101247.00
2022-12-24T18:25:36.453Z,101250.00
2022-12-24T18:31:18.118Z,101260.00
2022-12-24T18:33:51.818Z,101269.00
2022-12-24T18:36:25.259Z,101261.00
2022-12-24T18:39:04.270Z,101262.00
2022-12-24T18:41:37.893Z,101246.00
2022-12-24T18:44:10.959Z,101249.00
2022-12-24T18:46:43.807Z,101257.00
2022-12-24T18:49:16.619Z,101264.00
2022-12-24T18:51:49.227Z,101270.00
2022-12-24T18:54:22.377Z,101266.00
2022-12-24T18:56:58.136Z,101269.00
2022-12-24T18:59:31.165Z,101274.00
2022-12-24T19:02:04.151Z,101266.00
2022-12-24T19:04:37.396Z,101265.00
2022-12-24T19:07:10.287Z,101260.00
2022-12-24T19:09:43.533Z,101262.00
2022-12-24T19:12:16.437Z,101263.00
2022-12-24T19:14:58.393Z,101269.00
2022-12-24T19:17:31.423Z,101277.00
2022-12-24T19:20:04.542Z,101280.00
2022-12-24T19:22:37.259Z,101272.00
2022-12-24T19:25:11.321Z,101279.00
2022-12-24T19:27:44.307Z,101288.00
2022-12-24T19:30:17.680Z,101287.00
2022-12-24T19:32:50.564Z,101279.00
2022-12-24T19:35:23.473Z,101277.00
2022-12-24T19:37:56.519Z,101281.00
2022-12-24T19:40:30.447Z,101284.00
2022-12-24T19:43:04.090Z,101289.00
2022-12-24T19:45:37.167Z,101291.00
2022-12-24T19:48:11.073Z,101286.00
2022-12-24T19:50:46.475Z,101302.00
2022-12-24T19:53:19.501Z,101306.00
2022-12-24T19:55:52.434Z,101296.00
2022-12-24T19:58:25.292Z,101297.00
2022-12-24T20:01:07.165Z,101301.00
2022-12-24T20:03:38.481Z,101301.00
2022-12-24T20:06:11.655Z,101298.00
2022-12-24T20:08:44.430Z,101293.00
2022-12-24T20:11:18.922Z,101293.00
2022-12-24T20:13:55.400Z,101303.00
2022-12-24T20:16:28.591Z,101304.00
2022-12-24T20:19:06.252Z,101304.00
2022-12-24T20:21:39.896Z,101301.00
2022-12-24T20:24:13.123Z,101307.00
2022-12-24T20:26:46.109Z,101312.00
2022-12-24T20:29:18.947Z,101308.00
2022-12-24T20:31:51.831Z,101306.00
2022-12-24T20:34:24.953Z,101298.00
2022-12-24T20:37:12.127Z,101297.00
2022-12-24T20:39:46.490Z,101301.00
2022-12-24T20:42:19.587Z,101306.00
2022-12-24T20:44:53.087Z,101311.00
2022-12-24T20:47:34.824Z,101307.00
2022-12-24T20:50:07.969Z,101310.00
2022-12-24T20:52:43.483Z,101306.00
2022-12-24T20:55:16.527Z,101301.00
2022-12-24T20:57:50.763Z,101303.00
2022-12-24T21:00:24.817Z,101304.00
2022-12-24T21:02:57.827Z,101303.00
2022-12-24T21:05:33.633Z,101298.00
2022-12-24T21:08:05.263Z,101307.00
2022-12-24T21:10:38.866Z,101306.00
2022-12-24T21:13:12.460Z,101302.00
2022-12-24T21:15:45.307Z,101295.00
2022-12-24T21:18:18.420Z,101288.00
2022-12-24T21:20:51.283Z,101294.00
2022-12-24T21:23:24.056Z,101295.00
2022-12-24T21:26:07.686Z,101296.00
2022-12-24T21:28:40.566Z,101284.00
2022-12-24T21:31:14.824Z,101278.00
2022-12-24T21:33:47.770Z,101269.00
2022-12-24T21:36:21.439Z,101282.00
2022-12-24T21:38:54.455Z,101271.00
2022-12-24T21:41:27.906Z,101285.00
2022-12-24T21:44:02.489Z,101278.00
2022-12-24T21:46:35.724Z,101276.00
2022-12-24T21:49:25.934Z,101284.00
2022-12-24T21:51:58.849Z,101289.00
2022-12-24T21:54:32.837Z,101281.00
2022-12-24T21:57:24.878Z,101282.00
2022-12-24T21:59:59.024Z,101277.00
2022-12-24T22:02:32.102Z,101275.00
2022-12-24T22:05:05.063Z,101262.00
2022-12-24T22:07:55.331Z,101263.00
2022-12-24T22:10:45.746Z,101261.00
2022-12-24T22:13:18.784Z,101272.00
2022-12-24T22:15:53.579Z,101271.00
2022-12-24T22:18:28.199Z,101280.00
2022-12-24T22:21:02.024Z,101281.00
2022-12-24T22:23:40.465Z,101274.00
2022-12-24T22:26:24.133Z,101258.00
2022-12-24T22:28:57.165Z,101272.00
2022-12-24T22:31:30.078Z,101261.00
2022-12-24T22:34:03.243Z,101266.00
2022-12-24T22:36:36.203Z,101266.00
2022-12-24T22:39:11.393Z,101260.00
2022-12-24T22:41:44.242Z,101255.00
2022-12-24T22:44:17.343Z,101261.00
2022-12-24T22:46:50.177Z,101262.00
2022-12-24T22:49:23.047Z,101266.00
2022-12-24T22:52:00.272Z,101254.00
2022-12-24T22:54:33.090Z,101241.00
2022-12-24T22:57:05.939Z,101237.00
2022-12-24T22:59:38.914Z,101240.00
2022-12-24T23:02:12.452Z,101234.00
2022-12-24T23:04:46.146Z,101239.00
2022-12-24T23:07:19.053Z,101246.00
2022-12-24T23:09:51.977Z,101241.00
2022-12-24T23:12:25.974Z,101240.00
2022-12-24T23:15:02.366Z,101250.00
2022-12-24T23:17:35.619Z,101251.00
2022-12-24T23:20:08.612Z,101253.00
2022-12-24T23:22:41.434Z,101257.00
2022-12-24T23:25:14.923Z,101256.00
2022-12-24T23:27:47.798Z,101254.00
2022-12-24T23:30:21.645Z,101254.00
2022-12-24T23:32:54.635Z,101257.00
2022-12-24T23:35:27.473Z,101250.00
2022-12-24T23:38:00.505Z,101254.00
2022-12-24T23:40:37.562Z,101252.00
2022-12-24T23:43:10.424Z,101248.00
2022-12-24T23:45:43.478Z,101267.00
2022-12-24T23:48:16.445Z,101268.00
2022-12-24T23:50:49.956Z,101265.00
2022-12-24T23:53:23.075Z,101267.00
2022-12-24T23:55:56.080Z,101268.00
2022-12-24T23:58:28.917Z,101262.00
